Sretensk, Russia
Current Conditions -  °F | °C
As of 5:00 AM on Saturday 25 Oct 2014 (Local Time) from UIAA Reporting Station
Scattered Clouds Scattered Clouds  
Wind Chill: 25°   Ceiling: Unl
Heat Index: 34°   Visibility: 6mi
Dew Point: 19°   Wind: 11mph
Humidity: 56%   Direction: 250°WSW
Pressure: 29.65"   Gusts: NA
Location:  52.23°N, 117.7°E
Report Text: UIAA 242000Z 25005MPS 9999 SCT050 01/M07 Q1004 NOSIG RMK QFE69529CLRD70
Loading
Personal Weather Stations






























Interactive Weather Map
Tropical Storm Tracking
New forecast layout! Learn more

10-Day Weather Forecast

Advertisements
Track Severe Weather on mobile